sensor_id;sensor_type;location;lat;lon;timestamp;P1;durP1;ratioP1;P2;durP2;ratioP2
42702;SDS011;28341;52.064;4.920;2022-11-20T00:01:22;27.63;;;18.57;;
42702;SDS011;28341;52.064;4.920;2022-11-20T00:03:30;30.50;;;18.90;;
42702;SDS011;28341;52.064;4.920;2022-11-20T00:05:34;30.83;;;18.90;;
42702;SDS011;28341;52.064;4.920;2022-11-20T00:07:38;31.97;;;20.97;;
42702;SDS011;28341;52.064;4.920;2022-11-20T00:09:43;30.17;;;19.93;;
42702;SDS011;28341;52.064;4.920;2022-11-20T00:11:47;33.93;;;19.90;;
42702;SDS011;28341;52.064;4.920;2022-11-20T00:13:52;29.87;;;19.87;;
42702;SDS011;28341;52.064;4.920;2022-11-20T00:15:58;31.23;;;20.60;;
42702;SDS011;28341;52.064;4.920;2022-11-20T00:18:04;32.23;;;21.70;;
42702;SDS011;28341;52.064;4.920;2022-11-20T00:20:11;35.90;;;20.63;;
42702;SDS011;28341;52.064;4.920;2022-11-20T00:22:16;30.33;;;20.23;;
42702;SDS011;28341;52.064;4.920;2022-11-20T00:24:20;31.57;;;20.57;;
42702;SDS011;28341;52.064;4.920;2022-11-20T00:26:25;30.73;;;19.70;;
42702;SDS011;28341;52.064;4.920;2022-11-20T00:28:31;33.10;;;21.90;;
42702;SDS011;28341;52.064;4.920;2022-11-20T00:30:35;30.53;;;20.30;;
42702;SDS011;28341;52.064;4.920;2022-11-20T00:32:40;32.57;;;21.00;;
42702;SDS011;28341;52.064;4.920;2022-11-20T00:34:44;33.30;;;20.77;;
42702;SDS011;28341;52.064;4.920;2022-11-20T00:36:51;28.50;;;19.23;;
42702;SDS011;28341;52.064;4.920;2022-11-20T00:38:55;35.63;;;22.77;;
42702;SDS011;28341;52.064;4.920;2022-11-20T00:41:02;36.37;;;21.93;;
42702;SDS011;28341;52.064;4.920;2022-11-20T00:43:08;33.80;;;20.90;;
42702;SDS011;28341;52.064;4.920;2022-11-20T00:45:12;38.83;;;23.53;;
42702;SDS011;28341;52.064;4.920;2022-11-20T00:47:16;36.07;;;24.17;;
42702;SDS011;28341;52.064;4.920;2022-11-20T00:49:21;35.93;;;23.33;;
42702;SDS011;28341;52.064;4.920;2022-11-20T00:51:26;38.37;;;24.03;;
42702;SDS011;28341;52.064;4.920;2022-11-20T00:53:33;34.00;;;22.13;;
42702;SDS011;28341;52.064;4.920;2022-11-20T00:55:37;33.60;;;22.20;;
42702;SDS011;28341;52.064;4.920;2022-11-20T00:57:41;31.67;;;21.47;;
42702;SDS011;28341;52.064;4.920;2022-11-20T00:59:46;38.13;;;23.40;;
42702;SDS011;28341;52.064;4.920;2022-11-20T01:01:50;34.17;;;22.73;;
42702;SDS011;28341;52.064;4.920;2022-11-20T01:03:54;34.77;;;22.73;;
42702;SDS011;28341;52.064;4.920;2022-11-20T01:06:01;37.33;;;22.93;;
42702;SDS011;28341;52.064;4.920;2022-11-20T01:08:05;32.53;;;21.97;;
42702;SDS011;28341;52.064;4.920;2022-11-20T01:10:12;32.63;;;21.20;;
42702;SDS011;28341;52.064;4.920;2022-11-20T01:12:17;33.93;;;21.10;;
42702;SDS011;28341;52.064;4.920;2022-11-20T01:14:21;33.63;;;21.63;;
42702;SDS011;28341;52.064;4.920;2022-11-20T01:16:26;34.10;;;21.63;;
42702;SDS011;28341;52.064;4.920;2022-11-20T01:18:32;34.13;;;20.67;;
42702;SDS011;28341;52.064;4.920;2022-11-20T01:20:37;38.13;;;21.50;;
42702;SDS011;28341;52.064;4.920;2022-11-20T01:22:41;30.97;;;20.20;;
42702;SDS011;28341;52.064;4.920;2022-11-20T01:24:45;33.93;;;21.83;;
42702;SDS011;28341;52.064;4.920;2022-11-20T01:26:52;35.53;;;22.97;;
42702;SDS011;28341;52.064;4.920;2022-11-20T01:28:57;32.17;;;20.70;;
42702;SDS011;28341;52.064;4.920;2022-11-20T01:31:02;39.83;;;23.53;;
42702;SDS011;28341;52.064;4.920;2022-11-20T01:33:15;31.73;;;21.27;;
42702;SDS011;28341;52.064;4.920;2022-11-20T01:35:19;34.73;;;21.93;;
42702;SDS011;28341;52.064;4.920;2022-11-20T01:37:23;38.27;;;23.70;;
42702;SDS011;28341;52.064;4.920;2022-11-20T01:39:28;36.37;;;22.83;;
42702;SDS011;28341;52.064;4.920;2022-11-20T01:41:33;42.37;;;24.87;;
42702;SDS011;28341;52.064;4.920;2022-11-20T01:43:53;36.70;;;23.30;;
42702;SDS011;28341;52.064;4.920;2022-11-20T01:46:05;39.90;;;23.70;;
42702;SDS011;28341;52.064;4.920;2022-11-20T01:48:18;36.22;;;21.73;;
42702;SDS011;28341;52.064;4.920;2022-11-20T01:50:23;36.40;;;22.13;;
42702;SDS011;28341;52.064;4.920;2022-11-20T01:52:30;39.07;;;23.10;;
42702;SDS011;28341;52.064;4.920;2022-11-20T01:54:40;42.20;;;24.73;;
42702;SDS011;28341;52.064;4.920;2022-11-20T01:56:48;36.70;;;22.80;;
42702;SDS011;28341;52.064;4.920;2022-11-20T01:58:59;37.63;;;22.80;;
42702;SDS011;28341;52.064;4.920;2022-11-20T02:01:05;39.43;;;25.07;;
42702;SDS011;28341;52.064;4.920;2022-11-20T02:03:11;40.80;;;23.17;;
42702;SDS011;28341;52.064;4.920;2022-11-20T02:05:20;34.47;;;22.73;;
42702;SDS011;28341;52.064;4.920;2022-11-20T02:07:28;42.73;;;24.17;;
42702;SDS011;28341;52.064;4.920;2022-11-20T02:09:32;40.33;;;25.10;;
42702;SDS011;28341;52.064;4.920;2022-11-20T02:11:37;38.47;;;24.17;;
42702;SDS011;28341;52.064;4.920;2022-11-20T02:13:41;37.53;;;22.87;;
42702;SDS011;28341;52.064;4.920;2022-11-20T02:15:45;35.50;;;22.60;;
42702;SDS011;28341;52.064;4.920;2022-11-20T02:17:50;34.93;;;22.57;;
42702;SDS011;28341;52.064;4.920;2022-11-20T02:19:55;40.77;;;22.10;;
42702;SDS011;28341;52.064;4.920;2022-11-20T02:22:00;38.30;;;24.30;;
42702;SDS011;28341;52.064;4.920;2022-11-20T02:24:11;38.97;;;23.10;;
42702;SDS011;28341;52.064;4.920;2022-11-20T02:26:17;37.27;;;23.07;;
42702;SDS011;28341;52.064;4.920;2022-11-20T02:28:22;37.03;;;24.10;;
42702;SDS011;28341;52.064;4.920;2022-11-20T02:30:26;35.80;;;22.53;;
42702;SDS011;28341;52.064;4.920;2022-11-20T02:32:31;36.03;;;23.40;;
42702;SDS011;28341;52.064;4.920;2022-11-20T02:34:37;39.17;;;23.80;;
42702;SDS011;28341;52.064;4.920;2022-11-20T02:36:41;36.73;;;23.07;;
42702;SDS011;28341;52.064;4.920;2022-11-20T02:38:46;38.70;;;24.57;;
42702;SDS011;28341;52.064;4.920;2022-11-20T02:40:55;40.97;;;23.17;;
42702;SDS011;28341;52.064;4.920;2022-11-20T02:42:59;37.40;;;22.80;;
42702;SDS011;28341;52.064;4.920;2022-11-20T02:45:04;36.50;;;23.27;;
42702;SDS011;28341;52.064;4.920;2022-11-20T02:47:09;34.37;;;22.20;;
42702;SDS011;28341;52.064;4.920;2022-11-20T02:49:13;36.87;;;22.77;;
42702;SDS011;28341;52.064;4.920;2022-11-20T02:51:18;36.87;;;22.30;;
42702;SDS011;28341;52.064;4.920;2022-11-20T02:53:22;35.40;;;22.07;;
42702;SDS011;28341;52.064;4.920;2022-11-20T02:55:26;36.33;;;22.87;;
42702;SDS011;28341;52.064;4.920;2022-11-20T02:57:33;36.80;;;23.03;;
42702;SDS011;28341;52.064;4.920;2022-11-20T02:59:37;37.43;;;22.43;;
42702;SDS011;28341;52.064;4.920;2022-11-20T03:01:42;38.03;;;23.63;;
42702;SDS011;28341;52.064;4.920;2022-11-20T03:03:46;37.93;;;23.40;;
42702;SDS011;28341;52.064;4.920;2022-11-20T03:05:52;34.97;;;22.20;;
42702;SDS011;28341;52.064;4.920;2022-11-20T03:07:56;36.50;;;22.80;;
42702;SDS011;28341;52.064;4.920;2022-11-20T03:10:01;35.87;;;21.97;;
42702;SDS011;28341;52.064;4.920;2022-11-20T03:12:06;33.17;;;21.43;;
42702;SDS011;28341;52.064;4.920;2022-11-20T03:14:13;36.67;;;23.67;;
42702;SDS011;28341;52.064;4.920;2022-11-20T03:16:18;36.40;;;22.77;;
42702;SDS011;28341;52.064;4.920;2022-11-20T03:18:24;37.20;;;22.20;;
42702;SDS011;28341;52.064;4.920;2022-11-20T03:20:31;38.10;;;22.60;;
42702;SDS011;28341;52.064;4.920;2022-11-20T03:22:36;35.50;;;23.27;;
42702;SDS011;28341;52.064;4.920;2022-11-20T03:24:40;37.63;;;21.90;;
42702;SDS011;28341;52.064;4.920;2022-11-20T03:26:44;37.97;;;22.27;;
42702;SDS011;28341;52.064;4.920;2022-11-20T03:28:49;38.97;;;22.60;;
42702;SDS011;28341;52.064;4.920;2022-11-20T03:30:58;39.83;;;22.80;;
42702;SDS011;28341;52.064;4.920;2022-11-20T03:33:07;32.40;;;20.67;;
42702;SDS011;28341;52.064;4.920;2022-11-20T03:35:11;37.43;;;21.87;;
42702;SDS011;28341;52.064;4.920;2022-11-20T03:37:16;35.67;;;21.83;;
42702;SDS011;28341;52.064;4.920;2022-11-20T03:39:20;32.13;;;20.17;;
42702;SDS011;28341;52.064;4.920;2022-11-20T03:41:25;32.97;;;20.47;;
42702;SDS011;28341;52.064;4.920;2022-11-20T03:43:31;34.07;;;20.07;;
42702;SDS011;28341;52.064;4.920;2022-11-20T03:45:35;35.50;;;22.27;;
42702;SDS011;28341;52.064;4.920;2022-11-20T03:47:42;40.10;;;24.60;;
42702;SDS011;28341;52.064;4.920;2022-11-20T03:49:47;43.63;;;24.03;;
42702;SDS011;28341;52.064;4.920;2022-11-20T03:51:51;36.23;;;22.07;;
42702;SDS011;28341;52.064;4.920;2022-11-20T03:53:56;34.27;;;21.13;;
42702;SDS011;28341;52.064;4.920;2022-11-20T03:56:01;32.27;;;20.50;;
42702;SDS011;28341;52.064;4.920;2022-11-20T03:58:07;35.87;;;23.87;;
42702;SDS011;28341;52.064;4.920;2022-11-20T04:00:12;38.20;;;21.73;;
42702;SDS011;28341;52.064;4.920;2022-11-20T04:02:17;42.00;;;23.43;;
42702;SDS011;28341;52.064;4.920;2022-11-20T04:04:24;37.60;;;22.80;;
42702;SDS011;28341;52.064;4.920;2022-11-20T04:06:29;37.00;;;22.53;;
42702;SDS011;28341;52.064;4.920;2022-11-20T04:08:37;35.10;;;21.17;;
42702;SDS011;28341;52.064;4.920;2022-11-20T04:10:42;36.70;;;21.70;;
42702;SDS011;28341;52.064;4.920;2022-11-20T04:12:46;33.00;;;21.83;;
42702;SDS011;28341;52.064;4.920;2022-11-20T04:14:50;37.30;;;21.87;;
42702;SDS011;28341;52.064;4.920;2022-11-20T04:16:54;36.60;;;20.80;;
42702;SDS011;28341;52.064;4.920;2022-11-20T04:19:00;28.87;;;18.87;;
42702;SDS011;28341;52.064;4.920;2022-11-20T04:21:09;33.20;;;20.43;;
42702;SDS011;28341;52.064;4.920;2022-11-20T04:23:13;36.07;;;21.10;;
42702;SDS011;28341;52.064;4.920;2022-11-20T04:25:18;33.23;;;19.43;;
42702;SDS011;28341;52.064;4.920;2022-11-20T04:27:22;35.67;;;21.50;;
42702;SDS011;28341;52.064;4.920;2022-11-20T04:29:26;37.37;;;22.63;;
42702;SDS011;28341;52.064;4.920;2022-11-20T04:31:32;35.33;;;22.50;;
42702;SDS011;28341;52.064;4.920;2022-11-20T04:33:37;34.97;;;21.13;;
42702;SDS011;28341;52.064;4.920;2022-11-20T04:35:42;37.83;;;22.73;;
42702;SDS011;28341;52.064;4.920;2022-11-20T04:37:53;39.87;;;23.13;;
42702;SDS011;28341;52.064;4.920;2022-11-20T04:39:57;33.53;;;20.27;;
42702;SDS011;28341;52.064;4.920;2022-11-20T04:42:01;34.57;;;22.10;;
42702;SDS011;28341;52.064;4.920;2022-11-20T04:44:18;39.67;;;24.53;;
42702;SDS011;28341;52.064;4.920;2022-11-20T04:46:23;42.80;;;24.20;;
42702;SDS011;28341;52.064;4.920;2022-11-20T04:48:28;35.97;;;22.27;;
42702;SDS011;28341;52.064;4.920;2022-11-20T04:50:33;37.20;;;22.83;;
42702;SDS011;28341;52.064;4.920;2022-11-20T04:52:37;39.60;;;23.17;;
42702;SDS011;28341;52.064;4.920;2022-11-20T04:54:44;33.33;;;20.10;;
42702;SDS011;28341;52.064;4.920;2022-11-20T04:56:48;37.00;;;22.03;;
42702;SDS011;28341;52.064;4.920;2022-11-20T04:58:52;35.53;;;22.63;;
42702;SDS011;28341;52.064;4.920;2022-11-20T05:01:00;37.47;;;21.97;;
42702;SDS011;28341;52.064;4.920;2022-11-20T05:03:05;39.93;;;22.77;;
42702;SDS011;28341;52.064;4.920;2022-11-20T05:05:10;38.60;;;22.63;;
42702;SDS011;28341;52.064;4.920;2022-11-20T05:07:14;34.23;;;21.87;;
42702;SDS011;28341;52.064;4.920;2022-11-20T05:09:18;37.43;;;22.90;;
42702;SDS011;28341;52.064;4.920;2022-11-20T05:11:25;34.10;;;20.53;;
42702;SDS011;28341;52.064;4.920;2022-11-20T05:13:30;34.07;;;21.60;;
42702;SDS011;28341;52.064;4.920;2022-11-20T05:15:34;32.57;;;21.03;;
42702;SDS011;28341;52.064;4.920;2022-11-20T05:17:39;35.93;;;22.53;;
42702;SDS011;28341;52.064;4.920;2022-11-20T05:19:43;33.83;;;21.47;;
42702;SDS011;28341;52.064;4.920;2022-11-20T05:21:48;34.93;;;22.43;;
42702;SDS011;28341;52.064;4.920;2022-11-20T05:23:52;38.33;;;22.63;;
42702;SDS011;28341;52.064;4.920;2022-11-20T05:25:56;36.27;;;22.33;;
42702;SDS011;28341;52.064;4.920;2022-11-20T05:28:04;38.90;;;23.07;;
42702;SDS011;28341;52.064;4.920;2022-11-20T05:30:09;34.93;;;21.93;;
42702;SDS011;28341;52.064;4.920;2022-11-20T05:32:15;35.93;;;22.47;;
42702;SDS011;28341;52.064;4.920;2022-11-20T05:34:19;39.50;;;23.03;;
42702;SDS011;28341;52.064;4.920;2022-11-20T05:36:23;39.57;;;22.97;;
42702;SDS011;28341;52.064;4.920;2022-11-20T05:38:28;42.87;;;24.00;;
42702;SDS011;28341;52.064;4.920;2022-11-20T05:40:32;38.33;;;22.50;;
42702;SDS011;28341;52.064;4.920;2022-11-20T05:42:36;38.17;;;22.23;;
42702;SDS011;28341;52.064;4.920;2022-11-20T05:44:43;35.03;;;21.80;;
42702;SDS011;28341;52.064;4.920;2022-11-20T05:46:47;37.50;;;21.97;;
42702;SDS011;28341;52.064;4.920;2022-11-20T05:48:51;40.57;;;23.93;;
42702;SDS011;28341;52.064;4.920;2022-11-20T05:50:56;36.27;;;23.57;;
42702;SDS011;28341;52.064;4.920;2022-11-20T05:53:01;39.07;;;23.10;;
42702;SDS011;28341;52.064;4.920;2022-11-20T05:55:05;43.20;;;23.87;;
42702;SDS011;28341;52.064;4.920;2022-11-20T05:57:11;38.37;;;22.30;;
42702;SDS011;28341;52.064;4.920;2022-11-20T05:59:15;36.30;;;22.40;;
42702;SDS011;28341;52.064;4.920;2022-11-20T06:01:23;37.57;;;24.10;;
42702;SDS011;28341;52.064;4.920;2022-11-20T06:03:28;36.97;;;22.33;;
42702;SDS011;28341;52.064;4.920;2022-11-20T06:05:33;44.20;;;25.90;;
42702;SDS011;28341;52.064;4.920;2022-11-20T06:07:37;40.13;;;24.30;;
42702;SDS011;28341;52.064;4.920;2022-11-20T06:09:41;47.50;;;27.67;;
42702;SDS011;28341;52.064;4.920;2022-11-20T06:11:45;43.10;;;24.60;;
42702;SDS011;28341;52.064;4.920;2022-11-20T06:13:50;41.80;;;25.27;;
42702;SDS011;28341;52.064;4.920;2022-11-20T06:15:54;43.60;;;25.70;;
42702;SDS011;28341;52.064;4.920;2022-11-20T06:18:01;46.20;;;26.37;;
42702;SDS011;28341;52.064;4.920;2022-11-20T06:20:06;51.07;;;29.57;;
42702;SDS011;28341;52.064;4.920;2022-11-20T06:22:12;49.20;;;27.90;;
42702;SDS011;28341;52.064;4.920;2022-11-20T06:24:17;43.23;;;26.83;;
42702;SDS011;28341;52.064;4.920;2022-11-20T06:26:22;47.13;;;29.40;;
42702;SDS011;28341;52.064;4.920;2022-11-20T06:28:28;51.27;;;30.37;;
42702;SDS011;28341;52.064;4.920;2022-11-20T06:30:32;38.33;;;23.40;;
42702;SDS011;28341;52.064;4.920;2022-11-20T06:32:37;38.93;;;23.13;;
42702;SDS011;28341;52.064;4.920;2022-11-20T06:34:43;35.40;;;22.30;;
42702;SDS011;28341;52.064;4.920;2022-11-20T06:36:48;37.47;;;22.00;;
42702;SDS011;28341;52.064;4.920;2022-11-20T06:38:52;33.97;;;20.93;;
42702;SDS011;28341;52.064;4.920;2022-11-20T06:40:56;36.27;;;21.33;;
42702;SDS011;28341;52.064;4.920;2022-11-20T06:43:01;32.50;;;19.83;;
42702;SDS011;28341;52.064;4.920;2022-11-20T06:45:06;37.40;;;21.77;;
42702;SDS011;28341;52.064;4.920;2022-11-20T06:47:12;36.83;;;21.70;;
42702;SDS011;28341;52.064;4.920;2022-11-20T06:49:16;37.97;;;22.50;;
42702;SDS011;28341;52.064;4.920;2022-11-20T06:51:23;33.53;;;20.67;;
42702;SDS011;28341;52.064;4.920;2022-11-20T06:53:27;34.40;;;21.23;;
42702;SDS011;28341;52.064;4.920;2022-11-20T06:55:31;37.20;;;22.60;;
42702;SDS011;28341;52.064;4.920;2022-11-20T06:57:36;34.37;;;20.27;;
42702;SDS011;28341;52.064;4.920;2022-11-20T06:59:40;35.83;;;22.20;;
42702;SDS011;28341;52.064;4.920;2022-11-20T07:01:44;35.93;;;22.70;;
42702;SDS011;28341;52.064;4.920;2022-11-20T07:03:48;41.23;;;27.93;;
42702;SDS011;28341;52.064;4.920;2022-11-20T07:05:54;36.43;;;23.07;;
42702;SDS011;28341;52.064;4.920;2022-11-20T07:08:01;38.70;;;21.97;;
42702;SDS011;28341;52.064;4.920;2022-11-20T07:10:06;38.43;;;21.90;;
42702;SDS011;28341;52.064;4.920;2022-11-20T07:12:12;39.50;;;22.70;;
42702;SDS011;28341;52.064;4.920;2022-11-20T07:14:16;33.50;;;20.73;;
42702;SDS011;28341;52.064;4.920;2022-11-20T07:16:21;37.90;;;22.13;;
42702;SDS011;28341;52.064;4.920;2022-11-20T07:18:25;36.90;;;21.77;;
42702;SDS011;28341;52.064;4.920;2022-11-20T07:20:29;37.70;;;21.07;;
42702;SDS011;28341;52.064;4.920;2022-11-20T07:22:33;37.70;;;22.93;;
42702;SDS011;28341;52.064;4.920;2022-11-20T07:24:40;38.93;;;24.20;;
42702;SDS011;28341;52.064;4.920;2022-11-20T07:26:45;35.57;;;22.63;;
42702;SDS011;28341;52.064;4.920;2022-11-20T07:28:50;38.03;;;22.73;;
42702;SDS011;28341;52.064;4.920;2022-11-20T07:30:55;37.90;;;23.53;;
42702;SDS011;28341;52.064;4.920;2022-11-20T07:32:59;38.07;;;23.33;;
42702;SDS011;28341;52.064;4.920;2022-11-20T07:35:03;39.13;;;23.67;;
42702;SDS011;28341;52.064;4.920;2022-11-20T07:37:09;38.53;;;24.13;;
42702;SDS011;28341;52.064;4.920;2022-11-20T07:39:13;38.47;;;23.90;;
42702;SDS011;28341;52.064;4.920;2022-11-20T07:41:20;38.37;;;24.33;;
42702;SDS011;28341;52.064;4.920;2022-11-20T07:43:24;37.13;;;23.63;;
42702;SDS011;28341;52.064;4.920;2022-11-20T07:45:28;41.00;;;24.97;;
42702;SDS011;28341;52.064;4.920;2022-11-20T07:47:34;37.07;;;24.30;;
42702;SDS011;28341;52.064;4.920;2022-11-20T07:49:39;39.90;;;23.83;;
42702;SDS011;28341;52.064;4.920;2022-11-20T07:51:43;38.03;;;23.80;;
42702;SDS011;28341;52.064;4.920;2022-11-20T07:53:47;40.43;;;25.20;;
42702;SDS011;28341;52.064;4.920;2022-11-20T07:55:54;39.20;;;25.70;;
42702;SDS011;28341;52.064;4.920;2022-11-20T07:58:01;43.03;;;26.40;;
42702;SDS011;28341;52.064;4.920;2022-11-20T08:00:06;44.93;;;27.67;;
42702;SDS011;28341;52.064;4.920;2022-11-20T08:02:13;63.43;;;38.53;;
42702;SDS011;28341;52.064;4.920;2022-11-20T08:04:17;89.20;;;52.43;;
42702;SDS011;28341;52.064;4.920;2022-11-20T08:06:22;132.00;;;75.17;;
42702;SDS011;28341;52.064;4.920;2022-11-20T08:08:26;59.70;;;37.17;;
42702;SDS011;28341;52.064;4.920;2022-11-20T08:10:30;46.20;;;27.47;;
42702;SDS011;28341;52.064;4.920;2022-11-20T08:12:35;42.03;;;27.37;;
42702;SDS011;28341;52.064;4.920;2022-11-20T08:14:54;41.17;;;26.67;;
42702;SDS011;28341;52.064;4.920;2022-11-20T08:16:59;43.00;;;27.73;;
42702;SDS011;28341;52.064;4.920;2022-11-20T08:19:03;50.13;;;29.03;;
42702;SDS011;28341;52.064;4.920;2022-11-20T08:21:07;43.37;;;28.60;;
42702;SDS011;28341;52.064;4.920;2022-11-20T08:23:12;44.57;;;26.83;;
42702;SDS011;28341;52.064;4.920;2022-11-20T08:25:16;41.80;;;28.63;;
42702;SDS011;28341;52.064;4.920;2022-11-20T08:27:21;47.07;;;29.87;;
42702;SDS011;28341;52.064;4.920;2022-11-20T08:29:25;48.10;;;31.17;;
42702;SDS011;28341;52.064;4.920;2022-11-20T08:31:32;49.33;;;30.57;;
42702;SDS011;28341;52.064;4.920;2022-11-20T08:33:37;46.67;;;29.77;;
42702;SDS011;28341;52.064;4.920;2022-11-20T08:35:41;46.47;;;29.87;;
42702;SDS011;28341;52.064;4.920;2022-11-20T08:37:46;43.73;;;28.30;;
42702;SDS011;28341;52.064;4.920;2022-11-20T08:39:50;60.47;;;37.70;;
42702;SDS011;28341;52.064;4.920;2022-11-20T08:41:57;69.97;;;44.97;;
42702;SDS011;28341;52.064;4.920;2022-11-20T08:44:02;45.47;;;28.60;;
42702;SDS011;28341;52.064;4.920;2022-11-20T08:46:08;42.87;;;28.17;;
42702;SDS011;28341;52.064;4.920;2022-11-20T08:48:15;42.20;;;28.83;;
42702;SDS011;28341;52.064;4.920;2022-11-20T08:50:19;43.20;;;28.13;;
42702;SDS011;28341;52.064;4.920;2022-11-20T08:52:24;44.50;;;29.10;;
42702;SDS011;28341;52.064;4.920;2022-11-20T08:54:28;43.57;;;28.87;;
42702;SDS011;28341;52.064;4.920;2022-11-20T08:56:32;48.23;;;30.17;;
42702;SDS011;28341;52.064;4.920;2022-11-20T08:58:37;47.27;;;28.83;;
42702;SDS011;28341;52.064;4.920;2022-11-20T09:00:41;45.00;;;28.70;;
42702;SDS011;28341;52.064;4.920;2022-11-20T09:02:45;41.67;;;27.73;;
42702;SDS011;28341;52.064;4.920;2022-11-20T09:04:52;46.23;;;29.53;;
42702;SDS011;28341;52.064;4.920;2022-11-20T09:06:56;48.73;;;30.17;;
42702;SDS011;28341;52.064;4.920;2022-11-20T09:09:03;46.77;;;29.90;;
42702;SDS011;28341;52.064;4.920;2022-11-20T09:11:07;45.13;;;30.60;;
42702;SDS011;28341;52.064;4.920;2022-11-20T09:13:11;43.73;;;30.63;;
42702;SDS011;28341;52.064;4.920;2022-11-20T09:15:16;43.60;;;30.73;;
42702;SDS011;28341;52.064;4.920;2022-11-20T09:17:20;46.87;;;30.10;;
42702;SDS011;28341;52.064;4.920;2022-11-20T09:19:24;48.70;;;31.43;;
42702;SDS011;28341;52.064;4.920;2022-11-20T09:21:31;47.97;;;31.60;;
42702;SDS011;28341;52.064;4.920;2022-11-20T09:23:36;46.33;;;30.17;;
42702;SDS011;28341;52.064;4.920;2022-11-20T09:25:41;44.23;;;31.07;;
42702;SDS011;28341;52.064;4.920;2022-11-20T09:27:45;47.00;;;31.53;;
42702;SDS011;28341;52.064;4.920;2022-11-20T09:29:49;42.97;;;31.47;;
42702;SDS011;28341;52.064;4.920;2022-11-20T09:31:54;47.50;;;31.40;;
42702;SDS011;28341;52.064;4.920;2022-11-20T09:33:58;47.43;;;33.87;;
42702;SDS011;28341;52.064;4.920;2022-11-20T09:36:03;47.23;;;31.27;;
42702;SDS011;28341;52.064;4.920;2022-11-20T09:38:10;49.80;;;34.93;;
42702;SDS011;28341;52.064;4.920;2022-11-20T09:40:17;60.00;;;39.83;;
42702;SDS011;28341;52.064;4.920;2022-11-20T09:42:30;49.17;;;32.97;;
42702;SDS011;28341;52.064;4.920;2022-11-20T09:44:44;46.07;;;31.87;;
42702;SDS011;28341;52.064;4.920;2022-11-20T09:47:24;45.03;;;30.73;;
42702;SDS011;28341;52.064;4.920;2022-11-20T09:49:38;44.80;;;31.03;;
42702;SDS011;28341;52.064;4.920;2022-11-20T09:51:59;42.47;;;29.73;;
42702;SDS011;28341;52.064;4.920;2022-11-20T09:54:19;42.03;;;30.53;;
42702;SDS011;28341;52.064;4.920;2022-11-20T09:56:27;44.22;;;30.50;;
42702;SDS011;28341;52.064;4.920;2022-11-20T09:58:33;41.97;;;31.33;;
42702;SDS011;28341;52.064;4.920;2022-11-20T10:00:43;43.17;;;29.67;;
42702;SDS011;28341;52.064;4.920;2022-11-20T10:02:48;45.73;;;30.93;;
42702;SDS011;28341;52.064;4.920;2022-11-20T10:04:57;42.17;;;29.70;;
42702;SDS011;28341;52.064;4.920;2022-11-20T10:07:07;42.33;;;30.00;;
42702;SDS011;28341;52.064;4.920;2022-11-20T10:09:20;41.75;;;30.50;;
42702;SDS011;28341;52.064;4.920;2022-11-20T10:11:33;43.83;;;30.13;;
42702;SDS011;28341;52.064;4.920;2022-11-20T10:13:47;39.35;;;29.13;;
42702;SDS011;28341;52.064;4.920;2022-11-20T10:16:03;44.30;;;29.48;;
42702;SDS011;28341;52.064;4.920;2022-11-20T10:18:23;40.03;;;29.70;;
42702;SDS011;28341;52.064;4.920;2022-11-20T10:20:43;40.75;;;28.48;;
42702;SDS011;28341;52.064;4.920;2022-11-20T10:22:57;40.28;;;28.27;;
42702;SDS011;28341;52.064;4.920;2022-11-20T10:25:20;41.25;;;29.52;;
42702;SDS011;28341;52.064;4.920;2022-11-20T10:30:20;41.85;;;27.50;;
42702;SDS011;28341;52.064;4.920;2022-11-20T10:32:27;40.55;;;27.65;;
42702;SDS011;28341;52.064;4.920;2022-11-20T10:34:38;42.22;;;28.50;;
42702;SDS011;28341;52.064;4.920;2022-11-20T10:36:52;40.28;;;28.58;;
42702;SDS011;28341;52.064;4.920;2022-11-20T10:38:59;40.38;;;27.92;;
42702;SDS011;28341;52.064;4.920;2022-11-20T10:41:12;38.00;;;28.35;;
42702;SDS011;28341;52.064;4.920;2022-11-20T10:43:32;42.88;;;29.40;;
42702;SDS011;28341;52.064;4.920;2022-11-20T10:45:40;42.15;;;29.35;;
42702;SDS011;28341;52.064;4.920;2022-11-20T10:47:50;40.28;;;30.13;;
42702;SDS011;28341;52.064;4.920;2022-11-20T10:50:01;44.85;;;29.50;;
42702;SDS011;28341;52.064;4.920;2022-11-20T10:52:09;40.50;;;29.77;;
42702;SDS011;28341;52.064;4.920;2022-11-20T10:54:22;40.13;;;29.88;;
42702;SDS011;28341;52.064;4.920;2022-11-20T10:56:38;42.83;;;28.52;;
42702;SDS011;28341;52.064;4.920;2022-11-20T10:58:45;41.22;;;30.05;;
42702;SDS011;28341;52.064;4.920;2022-11-20T11:01:03;43.63;;;29.90;;
42702;SDS011;28341;52.064;4.920;2022-11-20T11:03:24;44.47;;;30.35;;
42702;SDS011;28341;52.064;4.920;2022-11-20T11:05:32;44.95;;;31.52;;
42702;SDS011;28341;52.064;4.920;2022-11-20T11:07:40;45.47;;;31.27;;
42702;SDS011;28341;52.064;4.920;2022-11-20T11:09:46;50.60;;;31.85;;
42702;SDS011;28341;52.064;4.920;2022-11-20T11:11:56;47.40;;;31.67;;
42702;SDS011;28341;52.064;4.920;2022-11-20T11:14:04;42.00;;;29.63;;
42702;SDS011;28341;52.064;4.920;2022-11-20T11:16:16;46.90;;;31.38;;
42702;SDS011;28341;52.064;4.920;2022-11-20T11:18:26;48.03;;;32.15;;
42702;SDS011;28341;52.064;4.920;2022-11-20T11:20:33;45.30;;;31.08;;
42702;SDS011;28341;52.064;4.920;2022-11-20T11:22:42;50.42;;;31.85;;
42702;SDS011;28341;52.064;4.920;2022-11-20T11:24:51;53.65;;;34.10;;
42702;SDS011;28341;52.064;4.920;2022-11-20T11:27:00;57.20;;;35.40;;
42702;SDS011;28341;52.064;4.920;2022-11-20T11:29:15;54.92;;;34.38;;
42702;SDS011;28341;52.064;4.920;2022-11-20T11:31:24;57.17;;;35.13;;
42702;SDS011;28341;52.064;4.920;2022-11-20T11:33:30;55.42;;;34.47;;
42702;SDS011;28341;52.064;4.920;2022-11-20T11:35:39;54.70;;;34.80;;
42702;SDS011;28341;52.064;4.920;2022-11-20T11:37:48;56.05;;;35.13;;
42702;SDS011;28341;52.064;4.920;2022-11-20T11:39:54;54.05;;;33.65;;
42702;SDS011;28341;52.064;4.920;2022-11-20T11:42:02;60.78;;;35.78;;
42702;SDS011;28341;52.064;4.920;2022-11-20T11:44:13;61.90;;;34.08;;
42702;SDS011;28341;52.064;4.920;2022-11-20T11:46:33;61.88;;;35.13;;
42702;SDS011;28341;52.064;4.920;2022-11-20T11:48:39;70.30;;;37.45;;
42702;SDS011;28341;52.064;4.920;2022-11-20T11:50:47;60.33;;;35.28;;
42702;SDS011;28341;52.064;4.920;2022-11-20T11:52:56;59.72;;;35.63;;
42702;SDS011;28341;52.064;4.920;2022-11-20T11:55:12;63.05;;;35.83;;
42702;SDS011;28341;52.064;4.920;2022-11-20T11:57:23;61.58;;;36.25;;
42702;SDS011;28341;52.064;4.920;2022-11-20T11:59:49;57.55;;;33.70;;
42702;SDS011;28341;52.064;4.920;2022-11-20T12:02:05;61.60;;;35.25;;
42702;SDS011;28341;52.064;4.920;2022-11-20T12:04:20;56.08;;;34.63;;
42702;SDS011;28341;52.064;4.920;2022-11-20T12:06:34;58.88;;;33.70;;
42702;SDS011;28341;52.064;4.920;2022-11-20T12:08:42;62.78;;;34.53;;
42702;SDS011;28341;52.064;4.920;2022-11-20T12:10:50;57.95;;;33.85;;
42702;SDS011;28341;52.064;4.920;2022-11-20T12:13:04;57.35;;;33.65;;
42702;SDS011;28341;52.064;4.920;2022-11-20T12:15:29;60.38;;;34.20;;
42702;SDS011;28341;52.064;4.920;2022-11-20T12:17:34;61.13;;;35.15;;
42702;SDS011;28341;52.064;4.920;2022-11-20T12:19:38;57.97;;;34.38;;
42702;SDS011;28341;52.064;4.920;2022-11-20T12:21:46;58.75;;;36.80;;
42702;SDS011;28341;52.064;4.920;2022-11-20T12:24:04;59.83;;;35.42;;